Warners, New York
Current Conditions -  °F | °C
As of 8:54 AM on Thursday 30 Oct 2014 (Local Time) from KSYR Reporting Station
Overcast Overcast  
Wind Chill: 39°   Ceiling: 4300
Heat Index: 45°   Visibility: 10mi
Dew Point: 42°   Wind: 12mph
Humidity: 90%   Direction: 250°WSW
Pressure: 30.02"   Gusts: NA
Location:  43.09°N, 76.33°W
Report Text: KSYR 301254Z 25010KT 10SM SCT020 OVC043 07/06 A3002 RMK AO2 RAE09 SLP164 P0000 T00720056
Loading
Personal Weather Stations






























Interactive Weather Map New forecast layout! Learn more

10-Day Weather Forecast

Advertisements
Track Severe Weather on mobile